Warning: Javascript must be enabled to use all the features on this page!


Page Loading - Please Wait...

* We've detected you're using a mobile device. Find our mobile dedicated web site here.
Click to hideNews Bulletins

Streamflow Measurements for the Nation


USGS 04092750 INDIANA HARBOR CANAL AT EAST CHICAGO, IN


Lake County, Indiana
Hydrologic Unit Code 04040001
Latitude  41°38'57", Longitude  87°28'07" NAD27
Gage datum 569.89 feet above NAVD88
Output formats
HTML table with channel data
HTML table without channel data
Tab-separated data with channel data
Tab-separated data without channel data
Graph of data
Reselect output format
Meas.
Number
  Date       Time Time
Datum
Measurement
Used?
  Who Measuring
Agency
Stream
flow
(ft3/s)
Gage
Height
(ft)
GH
Change
(ft)
Meas.
Duration
(hr)
Meas.
Rated
  Control Flow
Adjust.
Code
 
5432019-12-10 13:37:12ESTYesNJG/AJGUSGS-106012.50 Poor NONE
5422019-12-10 13:35:42ESTYesNJG/AJGUSGS-87712.49 Poor NONE
5412019-12-10 13:34:03ESTYesNJG/AJGUSGS-96712.47 Poor NONE
5402019-12-10 13:32:19ESTYesNJG/AJGUSGS-52312.44 Poor NONE
5392019-12-10 13:30:37ESTYesNJG/AJGUSGS-17012.40 Poor NONE
5382019-12-10 13:28:43ESTYesNJG/AJGUSGS69312.37 Poor NONE
5372019-12-10 13:26:50ESTYesNJG/AJGUSGS96212.35 Poor NONE
5362019-12-10 13:24:30ESTYesNJG/AJGUSGS85712.31 Poor NONE
5352019-10-16 12:37:53ESTYesNJG/AJGUSGS-61512.56 Poor NONE
5342019-10-16 12:36:08ESTYesNJG/AJGUSGS-64812.55 Poor NONE
5332019-10-16 12:34:16ESTYesNJG/AJGUSGS-55112.53 Poor NONE
5322019-10-16 12:32:22ESTYesNJG/AJGUSGS-18712.51 Poor NONE
5312019-10-16 12:30:11ESTYesNJG/AJGUSGS15012.48 Poor NONE
5302019-10-16 12:27:57ESTYesNJG/AJGUSGS12812.45 Poor NONE
5292019-10-16 12:26:13ESTYesNJG/AJGUSGS50112.40 Poor NONE
5282019-10-16 12:24:10ESTYesNJG/AJGUSGS58012.35 Poor NONE
5272019-07-23 12:59:13ESTYesNJG/AJGUSGS17113.070.000.05Poor NONE
5262019-07-23 12:57:23ESTYesNJG/AJGUSGS15813.050.000.05Unspecified NONE
5252019-07-23 12:55:24ESTYesNJG/AJGUSGS16613.020.000.05Poor NONE
5242019-07-23 12:53:42ESTYesNJG/AJGUSGS-47.113.020.000.05Poor NONE
5232019-07-23 12:51:54ESTYesNJG/AJGUSGS-32113.020.000.05Poor NONE
5222019-07-23 12:50:05ESTYesNJG/AJGUSGS-45613.020.000.05Poor NONE
5212019-07-23 12:47:55ESTYesNJG/AJGUSGS-53413.010.000.05Poor NONE
5202019-05-14 12:51:40ESTYesNJG/AJGUSGS43111.99 Poor NONE
5192019-05-14 12:50:29ESTYesNJG/AJGUSGS39112.00 Poor NONE
5182019-05-14 12:49:02ESTYesNJG/AJGUSGS38512.00 Poor NONE
5172019-05-14 12:47:41ESTYesNJG/AJGUSGS35011.99 Poor NONE
5162019-05-14 12:46:16ESTYesNJG/AJGUSGS43211.99 Poor NONE
5152019-05-14 12:44:46ESTYesNJG/AJGUSGS81711.99 Poor NONE
5142019-05-14 12:43:23ESTYesNJG/AJGUSGS92011.98 Poor NONE
5132019-05-14 12:42:08ESTYesNJG/AJGUSGS107011.97 Poor NONE
5122019-05-14 12:40:52ESTYesNJG/AJGUSGS119011.97 Poor NONE
5112019-05-14 12:39:37ESTYesNJG/AJGUSGS92511.97 Poor NONE
5102019-05-14 12:38:20ESTYesNJG/AJGUSGS87211.98 Poor NONE
5092019-05-14 12:37:10ESTYesNJG/AJGUSGS92611.99 Poor NONE
5082019-03-05 15:41:45ESTYesNJG/AJGUSGS27410.91 Poor NONE
5072019-03-05 15:40:27ESTYesNJG/AJGUSGS25.510.92 Poor NONE
5062019-03-05 15:38:52ESTYesNJG/AJGUSGS38.110.92 Poor NONE
5052019-03-05 15:37:10ESTYesNJG/AJGUSGS14310.92 Poor NONE
5042019-03-05 15:35:31ESTYesNJG/AJGUSGS18310.92 Poor NONE
5032019-03-05 15:33:49ESTYesNJG/AJGUSGS21510.91 Poor NONE
5022019-03-05 15:32:17ESTYesNJG/AJGUSGS29610.90 Poor NONE
5012019-03-05 15:30:40ESTYesNJG/AJGUSGS33010.90 Poor NONE
4812018-06-12 12:53:16ESTYesNJG/AJGUSGS143011.55 Poor NONE
4802018-06-12 12:51:50ESTYesNJG/AJGUSGS119011.60 Poor NONE
4792018-06-12 12:50:03ESTYesNJG/AJGUSGS102011.70 Poor NONE
4782018-06-12 12:48:08ESTYesNJG/AJGUSGS111011.73 Poor NONE
4772018-06-12 12:46:17ESTYesNJG/AJGUSGS94311.76 Poor NONE
4762018-06-12 12:44:26ESTYesNJG/AJGUSGS99811.79 Poor NONE
4752018-06-12 12:42:46ESTYesNJG/AJGUSGS106011.85 Poor NONE
4742018-06-12 12:41:09ESTYesNJG/AJGUSGS117011.88 Poor NONE
4732018-06-12 12:39:27ESTYesNJG/AJGUSGS98411.910.020.03Poor NONE
4722018-04-03 13:38:35ESTYesag/tbUSGS48911.36 Poor NONE
4712018-04-03 13:37:20ESTYesag/tbUSGS50911.29 Poor NONE
4702018-04-03 13:36:07ESTYesag/tbUSGS-91.311.24 Poor NONE
4692018-04-03 13:35ESTYesag/tbUSGS-79411.20 Poor NONE
4682018-04-03 13:33:48ESTYesag/tbUSGS-163011.22 Poor NONE
4672018-04-03 13:32:34ESTYesag/tbUSGS-172011.28 Poor NONE
4662018-04-03 13:31:18ESTYesag/tbUSGS-163011.29 Poor NONE
4652018-04-03 13:29:55ESTYesag/tbUSGS-137011.32 Poor NONE
4642017-12-05 11:36:12ESTYesNjg/ajgUSGS168010.10 Poor NONE
4632017-12-05 11:34:27ESTYesNjg/ajgUSGS156010.13 Poor NONE
4622017-12-05 11:32:43ESTYesNjg/ajgUSGS134010.17 Poor NONE
4612017-12-05 11:29:36ESTYesNjg/ajgUSGS109010.28 Poor NONE
4602017-12-05 11:27:29ESTYesNjg/ajgUSGS114010.35 Poor NONE
4592017-12-05 11:25:41ESTYesNjg/ajgUSGS116010.45 Poor NONE
4582017-12-05 11:23:49ESTYesNjg/ajgUSGS126010.45 Poor NONE
4572017-12-05 11:21:35ESTYesNjg/ajgUSGS125010.27 Poor NONE
4562017-08-29 14:08:52ESTYesAJG, NJGUSGS-23411.72 PoorClearNONE
4552017-08-29 14:07ESTYesAJG, NJGUSGS-10311.70 PoorClearNONE
4542017-08-29 14:05:04ESTYesAJG, NJGUSGS43.111.68 UnspecifiedClearNONE
4532017-08-29 14:03:12ESTYesAJG, NJGUSGS20411.67 PoorClearNONE
4522017-08-29 14:01:23ESTYesAJG, NJGUSGS22811.66 PoorClearNONE
4512017-08-29 13:59:37ESTYesAJG, NJGUSGS28811.66 PoorClearNONE
4502017-08-29 13:57:52ESTYesAJG, NJGUSGS24611.67 PoorClearNONE
4492017-08-29 13:55:58ESTYesAJG, NJGUSGS14811.67 PoorClearNONE
4342017-03-28 15:13:15ESTYesNJG/ AJGUSGS-65310.15 PoorClearNONE
4332017-03-28 15:11:35ESTYesNJG/ AJGUSGS-50810.11 PoorClearNONE
4322017-03-28 15:09:32ESTYesNJG/ AJGUSGS-36310.11 PoorClearNONE
4312017-03-28 15:07:52ESTYesNJG/ AJGUSGS-44.610.14 PoorClearNONE
4302017-03-28 15:06:12ESTYesNJG/ AJGUSGS34810.21 PoorClearNONE
4292017-03-28 15:04:17ESTYesNJG/ AJGUSGS43410.29 PoorClearNONE
4282017-03-28 15:02:18ESTYesNJG/ AJGUSGS67510.30 PoorClearNONE
4272017-03-28 15:00:32ESTYesNJG/ AJGUSGS57710.35 PoorClearNONE
4262017-03-28 14:58:46ESTYesNJG/ AJGUSGS25.210.39 PoorClearNONE
4252016-11-08 12:58:19ESTYesag/kgUSGS-138010.55 PoorClearNONE
4242016-11-08 12:56:23ESTYesag/kgUSGS-60910.44 PoorClearNONE
4232016-11-08 12:54:28ESTYesag/kgUSGS-86.310.35 PoorClearNONE
4222016-11-08 12:52:39ESTYesag/kgUSGS39810.32 PoorClearNONE
4212016-11-08 12:50:48ESTYesag/kgUSGS102010.29 PoorClearNONE
4202016-11-08 12:49:06ESTYesag/kgUSGS117010.30 PoorClearNONE
4192016-11-08 12:47:24ESTYesag/kgUSGS63810.35 PoorClearNONE
4182016-11-08 12:45:31ESTYesag/kgUSGS30910.40 PoorClearNONE
4172016-11-08 12:43:44ESTYesag/kgUSGS86010.40 PoorClearNONE
4162016-11-08 12:41:46ESTYesag/kgUSGS173010.38 PoorClearNONE
4152016-09-13 12:03:54ESTYesag/mjUSGS20011.03 PoorClearNONE
4142016-09-13 12:02:51ESTYesag/mjUSGS-33711.05 PoorClearNONE
4132016-09-13 12:01:34ESTYesag/mjUSGS-77911.08 PoorClearNONE
4122016-09-13 12:00:16ESTYesag/mjUSGS-79.011.11 PoorClearNONE
4112016-09-13 11:59:11ESTYesag/mjUSGS34111.14 PoorClearNONE
4102016-09-13 11:57:54ESTYesag/mjUSGS79411.17 PoorClearNONE
4092016-09-13 11:56:26ESTYesag/mjUSGS73811.21 PoorClearNONE
4082016-07-19 12:51:32ESTYesAG/MWUSGS100011.23 PoorClearNONE
4072016-07-19 12:49:53ESTYesAG/MWUSGS80611.24 PoorClearNONE
4062016-07-19 12:48:17ESTYesAG/MWUSGS63911.26 PoorClearNONE
4052016-07-19 12:46:44ESTYesAG/MWUSGS67311.28 PoorClearNONE
4042016-07-19 12:45:13ESTYesAG/MWUSGS77411.31 PoorClearNONE
4032016-07-19 12:43:30ESTYesAG/MWUSGS65711.30 PoorClearNONE
4022016-07-19 12:41:44ESTYesAG/MWUSGS44911.30 PoorClearNONE
4012016-07-19 12:40:02ESTYesAG/MWUSGS19611.29 PoorClearNONE
4002016-07-19 12:38:01ESTYesAG/MWUSGS-31.311.27 PoorClearNONE
3992016-07-19 12:35:47ESTYesAG/MWUSGS-47711.24 PoorClearNONE
3982016-05-18 09:24:47ESTYesag/mdUSGS95411.20 PoorClearNONE
3972016-05-18 09:21:28ESTYesag/mdUSGS149011.19 PoorClearNONE
3962016-05-18 09:19:42ESTYesag/mdUSGS141011.18 PoorClearNONE
3952016-05-18 09:17:48ESTYesag/mdUSGS114011.21 PoorClearNONE
3942016-05-18 09:16ESTYesag/mdUSGS94411.23 PoorClearNONE
3932016-05-18 09:14:09ESTYesag/mdUSGS81511.25 PoorClearNONE
3922016-05-18 09:12:15ESTYesag/mdUSGS67311.28 PoorClearNONE
3912016-05-18 09:10:05ESTYesag/mdUSGS54311.32 PoorClearNONE
3902016-05-18 09:08:07ESTYesag/mdUSGS62111.32 PoorClearNONE
3892016-01-05 16:11:52ESTYesag/mwUSGS-75.69.64 PoorClearNONE
3882016-01-05 16:10:19ESTYesag/mwUSGS1749.64 PoorClearNONE
3872016-01-05 16:08:50ESTYesag/mwUSGS3259.64 PoorClearNONE
3862016-01-05 16:07:23ESTYesag/mwUSGS6919.63 PoorClearNONE
3852016-01-05 16:05:54ESTYesag/mwUSGS12309.63 PoorClearNONE
3842016-01-05 16:04:18ESTYesag/mwUSGS15109.64 PoorClearNONE
3832016-01-05 16:02:53ESTYesag/mwUSGS16809.65 PoorClearNONE
3822016-01-05 16:01:34ESTYesag/mwUSGS18809.66 PoorClearNONE
3812016-01-05 16:00:10ESTYesag/mwUSGS21809.68 PoorClearNONE
3802016-01-05 15:58:28ESTYesag/mwUSGS20609.71 PoorClearNONE
3792016-01-05 15:57:02ESTYesag/mwUSGS20009.73 PoorClearNONE
3782016-01-05 15:55:41ESTYesag/mwUSGS17609.76 PoorClearNONE
3772016-01-05 15:54:19ESTYesag/mwUSGS15509.79 PoorClearNONE
3762016-01-05 15:52:44ESTYesag/mwUSGS12709.82 PoorClearNONE
3752015-10-30 08:36:34ESTYesagUSGS-5639.87 PoorUnspecifedNONE
3742015-10-30 08:33:58ESTYesagUSGS-2839.82 PoorUnspecifedNONE
3732015-10-30 08:31:07ESTYesagUSGS1699.77 PoorUnspecifedNONE
3722015-10-30 08:28:28ESTYesagUSGS4959.76 PoorUnspecifedNONE
3712015-10-30 08:25:37ESTYesagUSGS9019.79 PoorUnspecifedNONE
3702015-10-30 08:22:39ESTYesagUSGS12309.79 PoorUnspecifedNONE
3692015-10-30 08:20:14ESTYesagUSGS16809.79 PoorUnspecifedNONE
3682015-10-30 08:18:26ESTYesagUSGS17509.79 PoorUnspecifedNONE
3552015-07-22 08:05:26ESTYesag/mwUSGS36910.73 PoorClearNONE
3542015-07-22 08:04:02ESTYesag/mwUSGS30310.73 PoorClearNONE
3532015-07-22 08:02:48ESTYesag/mwUSGS14010.72 PoorClearNONE
3522015-07-22 08:01:37ESTYesag/mwUSGS-65.510.72 PoorClearNONE
3512015-07-22 08:00:07ESTYesag/mwUSGS-19710.71 PoorClearNONE
3502015-07-22 07:58:33ESTYesag/mwUSGS-13710.72 PoorClearNONE
3492015-07-22 07:57:05ESTYesag/mwUSGS91.910.73 PoorClearNONE
3482015-07-22 07:55:43ESTYesag/mwUSGS17110.74 PoorClearNONE
3472015-07-22 07:54:30ESTYesag/mwUSGS34110.75 PoorClearNONE
3462015-07-22 07:53:20ESTYesag/mwUSGS52710.75 PoorClearNONE
3452015-07-22 07:52:03ESTYesag/mwUSGS76210.74 PoorClearNONE
3442015-07-22 07:50:11ESTYesag/mwUSGS101010.74 PoorClearNONE
2982015-01-27 09:30:33ESTYesagUSGS12110.41 PoorClearNONE
2972015-01-27 09:29:02ESTYesagUSGS29610.39 PoorClearNONE
2962015-01-27 09:27:23ESTYesagUSGS28710.38 PoorClearNONE
2952015-01-27 09:25:34ESTYesagUSGS-14.210.36 PoorClearNONE
2942015-01-27 09:23:40ESTYesagUSGS-38810.37 PoorClearNONE
2932015-01-27 09:21:16ESTYesagUSGS-34510.37 PoorClearNONE
2862014-10-09 10:18:53ESTYesERLUSGS11109.820.000.00PoorDebrisLightNONE
2852014-10-09 10:16:19ESTYesERLUSGS8319.810.010.00PoorDebrisLightNONE
2842014-10-09 10:13:10ESTYesERLUSGS2849.88-0.020.00PoorDebrisLightNONE
2832014-10-09 10:09:32ESTYesERLUSGS2939.93-0.010.00PoorDebrisLightNONE
2822014-08-27 15:29:04ESTYesERLUSGS55310.05-0.010.00PoorDebrisLightNONE
2812014-08-27 15:26:06ESTYesERLUSGS121010.08-0.010.00PoorDebrisLightNONE
2802014-08-27 15:23:04ESTYesERLUSGS179010.070.010.00PoorDebrisLightNONE
2792014-08-27 15:20:05ESTYesERLUSGS255010.050.000.00PoorDebrisLightNONE
2782014-06-17 16:06:46ESTYesERLUSGS-29409.760.010.00PoorClearNONE
2772014-06-17 16:04:50ESTYesERLUSGS-33809.750.010.00PoorClearNONE
2762014-06-17 16:01:41ESTYesERLUSGS-34609.700.010.00PoorClearNONE
2752014-06-17 15:59:40ESTYesERLUSGS-34309.670.010.00PoorClearNONE
2742014-04-16 13:05:46ESTYesERL/JMLUSGS13108.160.010.00PoorDebrisLightNONE
2732014-04-16 13:03:37ESTYesERL/JMLUSGS14308.18-0.030.00PoorDebrisLightNONE
2722014-04-16 13:01:42ESTYesERL/JMLUSGS20108.21-0.030.00PoorDebrisLightNONE
2712014-04-16 12:59:37ESTYesERL/JMLUSGS25308.25-0.030.00PoorDebrisLightNONE
2702014-04-16 12:57:43ESTYesERL/JMLUSGS29108.28-0.030.00PoorDebrisLightNONE
2692014-04-16 12:55:04ESTYesERL/JMLUSGS26008.33-0.030.00PoorDebrisLightNONE
2682014-02-10 16:46:13ESTYesERL/EGDUSGS8868.160.000.00PoorUnspecifedNONE
2672014-02-10 16:43:05ESTYesERL/EGDUSGS11208.16-0.010.00PoorUnspecifedNONE
2662014-02-10 16:40:17ESTYesERL/EGDUSGS11208.15-0.010.00PoorUnspecifedNONE
2652014-02-10 16:37:13ESTYesERL/EGDUSGS9448.14-0.010.00PoorUnspecifedNONE
2642014-02-10 16:34:09ESTYesERL/EGDUSGS6258.14-0.010.00PoorUnspecifedNONE
2632014-02-10 16:31:04ESTYesERL/EGDUSGS2838.18-0.010.00PoorUnspecifedNONE
2622013-12-10 15:23:08ESTYesERLUSGS4527.710.020.10PoorDebrisLightNONE
2612013-12-10 15:20:07ESTYesERLUSGS9447.710.020.10PoorDebrisLightNONE
2602013-12-10 15:17:14ESTYesERLUSGS14607.610.090.10PoorDebrisLightNONE
2592013-12-10 15:14:09ESTYesERLUSGS9477.57-0.060.10PoorDebrisLightNONE
2582013-12-10 15:11:07ESTYesERLUSGS4097.64-0.060.10PoorDebrisLightNONE
2572013-12-10 15:08:02ESTYesERLUSGS42.97.69-0.020.10PoorDebrisLightNONE
2562013-10-22 16:02:13ESTYesERL/AJGUSGS5877.790.010.00PoorDebrisLightNONE
2552013-10-22 15:59:03ESTYesERL/AJGUSGS7307.79-0.030.00PoorDebrisLightNONE
2542013-10-22 15:56:20ESTYesERL/AJGUSGS9757.83-0.030.00PoorDebrisLightNONE
2532013-10-22 15:53:06ESTYesERL/AJGUSGS16107.87-0.030.00PoorDebrisLightNONE
2522013-10-22 15:50:21ESTYesERL/AJGUSGS19107.91-0.030.00PoorDebrisLightNONE
2512013-10-22 15:47:24ESTYesERL/AJGUSGS16207.95-0.080.00PoorDebrisLightNONE
2502013-08-26 16:19:07ESTYesERLUSGS44.48.770.070.00PoorDebrisLightNONE
2492013-08-26 16:16:09ESTYesERLUSGS5628.880.070.00PoorDebrisLightNONE
2482013-08-26 16:13:06ESTYesERLUSGS18208.85-0.080.00PoorDebrisLightNONE
2472013-08-26 16:02:09ESTYesERLUSGS-5248.910.060.00PoorDebrisLightNONE
2462013-08-26 15:59:06ESTYesERLUSGS-5698.99-0.040.00PoorDebrisLightNONE
2452013-08-26 15:56:05ESTYesERLUSGS-6548.880.300.00PoorDebrisLightNONE
2442013-06-27 12:56:34ESTYesERLUSGS-2728.700.040.00PoorDebrisLightNONE
2432013-06-27 12:53:16ESTYesERLUSGS-11208.640.000.00PoorDebrisLightNONE
2422013-06-27 12:50:10ESTYesERLUSGS-10808.650.010.00PoorDebrisLightNONE
2412013-06-27 12:46:30ESTYesERLUSGS7078.600.010.00PoorDebrisLightNONE
2402013-06-27 12:43:09ESTYesERLUSGS18908.590.010.00PoorDebrisLightNONE
2392013-06-27 12:39:28ESTYesERLUSGS18408.560.010.00PoorDebrisLightNONE
2382013-05-08 14:42:06ESTYesERL/MRJUSGS5468.220.000.30PoorClearNONE
2372013-05-08 14:38:57ESTYesERL/MRJUSGS6668.210.000.30PoorClearNONE
2362013-05-08 14:34:32ESTYesERL/MRJUSGS7098.200.000.30PoorClearNONE
2352013-05-08 14:30:37ESTYesERL/MRJUSGS3278.200.001.00PoorClearNONE
2342013-05-08 14:26:30ESTYesERL/MRJUSGS3038.170.000.30PoorClearNONE
2332013-05-08 14:23:06ESTYesERL/MRJUSGS3418.150.000.30PoorClearNONE
2322013-03-06 16:14:58ESTYesERL/EGDUSGS-24.47.600.281.00PoorDebrisLightNONE
2312013-03-06 16:03:29ESTYesERL/EGDUSGS-1007.530.281.00PoorDebrisLightNONE
2302013-01-09 12:23:26ESTYesERL/RGKUSGS-1316.490.071.00GoodClearNONE
2292013-01-09 12:21:35ESTYesERL/RGKUSGS2466.450.071.00GoodClearNONE
2282013-01-09 12:19:21ESTYesERL/RGKUSGS6856.420.071.00GoodClearNONE
2272013-01-09 12:16:27ESTYesERL/RGKUSGS13006.390.071.00GoodClearNONE
2262012-11-08 17:17:32ESTYesERL/JSSUSGS-3877.12-0.141.00GoodDebrisLightNONE
2252012-11-08 17:12:46ESTYesERL/JSSUSGS-10307.11-0.141.00GoodDebrisLightNONE
2242012-11-08 17:00:45ESTYesERL/JSSUSGS5986.88-0.141.00GoodDebrisLightNONE
2232012-11-08 16:47ESTYesERL/JSSUSGS9006.97-0.141.00GoodDebrisLightNONE
2222012-09-06 12:12ESTYesERL/RGKUSGS6078.08 PoorUnspecifedNONE
2212012-09-06 12:09ESTYesERL/RGKUSGS12608.06 PoorUnspecifedNONE
2202012-09-06 12:05ESTYesERL/RGKUSGS7978.03 PoorUnspecifedNONE
2192012-09-06 12:01ESTYesERL/RGKUSGS2358.07 PoorUnspecifedNONE
2182012-09-06 11:54ESTYesERL/RGKUSGS7948.17 PoorUnspecifedNONE
2172012-09-06 11:52ESTYesERL/RGKUSGS7438.110.070.10GoodUnspecifedNONE
2162012-07-17 18:09:44ESTYesERL/RGKUSGS-1768.35 PoorClearNONE
2152012-07-17 18:05:49ESTYesERL/RGKUSGS5388.31 PoorClearNONE
2142012-07-17 18:01:43ESTYesERL/RGKUSGS6868.30 PoorClearNONE
2132012-07-17 17:54:06ESTYesERL/RGKUSGS5218.29 PoorClearNONE
2122012-05-21 11:57ESTYesEGD JSSUSGS-1458.760.000.10PoorClearNONE
2112012-05-21 11:52ESTYesEGD JSSUSGS-4858.830.000.10PoorClearNONE
2102012-05-21 11:47ESTYesEGD JSSUSGS-4068.630.000.10PoorClearNONE
2092012-05-21 11:42ESTYesEGD JSSUSGS-9028.54 PoorClearNONE
2082012-03-19 10:37ESTYesRGK EGDUSGS48.28.260.000.10PoorClearNONE
2072012-03-19 10:32ESTYesRGK EGDUSGS7838.250.000.10PoorClearNONE
2062012-03-19 10:27ESTYesRGK EGDUSGS10308.290.000.10PoorClearNONE
2052012-03-19 10:21:04ESTYesRGK EGDUSGS12508.33 PoorClearNONE
2042012-01-31 11:41ESTYesrgk/egdUSGS56.37.970.000.10PoorClearNONE
2032012-01-31 11:36ESTYesrgk/egdUSGS-14607.990.000.10PoorClearNONE
2022012-01-31 11:31ESTYesrgk/egdUSGS1757.960.000.10PoorClearNONE
2012012-01-31 11:25:53ESTYesrgk/egdUSGS14607.92 PoorClearNONE
2002011-09-01 12:46ESTYesrgk/wjlUSGS9488.820.000.10Poor NONE
1992011-09-01 12:41ESTYesrgk/wjlUSGS11308.890.000.10Poor NONE
1982011-09-01 12:31ESTYesrgk/wjlUSGS8488.950.000.10Poor NONE
1972011-09-01 12:26ESTYesrgk/wjlUSGS8349.040.000.10Poor NONE
1962011-07-12 09:11ESTYesrgk/mshUSGS-15909.100.000.10PoorClearNONE
1952011-07-12 09:06ESTYesrgk/mshUSGS11409.040.000.10PoorClearNONE
1942011-07-12 09:01ESTYesrgk/mshUSGS33409.030.000.10PoorClearNONE
1932011-07-12 08:56ESTYesrgk/mshUSGS22609.160.000.10PoorClearNONE
1922011-07-12 08:51ESTYesrgk/mshUSGS-6029.220.000.10PoorClearNONE
1912011-03-15 11:22ESTYesrgk/mshUSGS2418.240.000.30PoorClearNONE
1902011-03-15 11:17ESTYesrgk/mshUSGS5568.360.000.10PoorClearNONE
1892011-03-15 11:12ESTYesrgk/mshUSGS11808.160.000.10PoorClearNONE
1882011-03-15 11:07ESTYesrgk/mshUSGS3738.110.000.10PoorClearNONE
1872010-11-29 14:26ESTYesrgk/mshUSGS2868.010.000.10Poor NONE
1862010-11-29 14:21ESTYesrgk/mshUSGS5537.970.000.10Poor NONE
1852010-11-29 14:16ESTYesrgk/mshUSGS6007.980.000.10Poor NONE
1842010-11-29 14:11ESTYesrgk/mshUSGS-53.37.950.000.10Poor NONE
1832010-11-29 14:06ESTYesrgk/mshUSGS-6057.840.000.10Poor NONE
1822010-10-05 14:26ESTYesrgk/mshUSGS9458.620.000.10Poor NONE
1812010-10-05 14:21ESTYesrgk/mshUSGS19008.620.000.10Poor NONE
1802010-10-05 14:16ESTYesrgk/mshUSGS14008.700.000.10Poor NONE
1792010-10-05 13:26ESTYesrgk/mshUSGS6408.840.000.10Poor NONE
1782010-05-19 09:31ESTYesrgk/mshUSGS16108.950.000.10PoorClearNONE
1772010-05-19 09:27ESTYesrgk/mshUSGS21909.000.000.10PoorClearNONE
1762010-05-19 09:22ESTYesrgk/mshUSGS19609.100.000.10FairClearNONE
1752010-05-19 09:17ESTYesrgk/mshUSGS7329.200.000.10PoorClearNONE
1742010-05-19 09:12ESTYesrgk/mshUSGS-2429.180.000.10PoorClearNONE
1732010-05-19 09:07ESTYesrgk/mshUSGS-7219.060.000.10PoorClearNONE
1722010-05-19 09:01ESTYesrgk/mshUSGS-11108.960.000.10PoorClearNONE
1712010-04-14 09:52ESTYesrgk/mshUSGS3338.860.000.10FairClearNONE
1702010-04-14 09:47ESTYesrgk/mshUSGS2798.840.000.10Fair NONE
1692010-04-14 09:41ESTYesrgk/mshUSGS1938.800.000.10FairClearNONE
1682010-04-14 09:37ESTYesrgk/mshUSGS2748.790.000.10FairClearNONE
1672010-02-03 15:37ESTYesrgk/labUSGS8128.820.000.10FairClearNONE
1662010-02-03 15:32ESTYesrgk/labUSGS-2348.860.000.10FairClearNONE
1652010-02-03 15:26ESTYesrgk/labUSGS-3408.870.000.10FairClearNONE
1642010-02-03 15:22ESTYesrgk/labUSGS6338.760.000.10FairClearNONE
1632010-02-03 15:16ESTYesrgk/labUSGS8538.750.000.10FairClearNONE
1622010-02-03 15:11ESTYesrgk/labUSGS4648.790.000.10FairClearNONE
1612009-12-01 12:42ESTYesrgk/mshUSGS15709.100.000.10PoorUnspecifedNONE
1602009-12-01 12:37ESTYesrgk/mshUSGS15509.110.000.10PoorUnspecifedNONE
1592009-12-01 12:32ESTYesrgk/mshUSGS13609.220.000.10PoorUnspecifedNONE
1582009-12-01 12:25ESTYesrgk/mshUSGS9599.28 PoorClearNONE
1572009-10-27 14:30ESTYeslvmUSGS17009.090.000.10PoorUnspecifedNONE
1562009-10-27 14:26ESTYeslvmUSGS7959.390.000.10PoorUnspecifedNONE
1552009-10-27 14:18ESTYeslvmUSGS10409.280.000.10PoorUnspecifedNONE
1542009-10-27 14:12ESTYeslvmUSGS8859.380.000.10PoorUnspecifedNONE
1532009-08-25 11:27ESTYesrgk/mshUSGS-6879.480.000.10PoorClearNONE
1522009-08-25 11:22ESTYesrgk/mshUSGS3149.330.000.10PoorClearNONE
1512009-08-25 11:17ESTYesrgk/mshUSGS2159.220.000.10PoorClearNONE
1502009-08-25 11:12ESTYesrgk/mshUSGS-62.49.320.000.10PoorClearNONE
1492009-04-08 11:51ESTYesrgk/mshUSGS2898.700.000.10PoorClearNONE
1482009-04-08 11:45ESTYesrgk/mshUSGS6088.61 PoorClearNONE
1472009-04-08 11:41ESTYesrgk/mshUSGS6888.630.000.10PoorClearNONE
1462009-04-08 11:35ESTYesrgk/mshUSGS4768.630.000.00PoorClearNONE
1452009-01-28 11:07ESTYesrgk/bslUSGS8098.350.000.20PoorClearNONE
1442008-10-08 09:50ESTYesrgk/mshUSGS8888.880.000.10PoorClearNONE
1432008-10-08 09:45ESTYesrgk/mshUSGS9888.940.000.10PoorClearNONE
1422008-10-08 09:40ESTYesrgk/mshUSGS10708.940.000.10PoorClearNONE
1412008-10-08 09:35ESTYesrgk/mshUSGS7248.960.000.10PoorClearNONE
1402008-08-06 09:40ESTYeshtm/lvmUSGS8489.01 UnspecifiedClearNONE
1392008-08-06 09:35ESTYeshtm/lvmUSGS5128.95 UnspecifiedClearNONE
1382008-08-06 09:30ESTYeshtm/lvmUSGS2788.86 UnspecifiedClearNONE
1372008-08-06 09:25ESTYeshtm/lvmUSGS4788.91 UnspecifiedClearNONE
1362008-08-06 09:20ESTYeshtm/lvmUSGS13908.99 UnspecifiedClearNONE
1352008-08-06 09:14ESTYeshtm/lvmUSGS29808.99-0.140.50GoodClearNONE
1342008-07-09 13:55ESTYesBTR/HTMUSGS16509.160.000.10PoorClearNONE
1332008-07-09 13:50ESTYesBTR/HTMUSGS2249.230.000.10PoorClearNONE
1322008-07-09 13:45ESTYesBTR/HTMUSGS-10609.230.000.10PoorClearNONE
1312008-07-09 13:40ESTYesBTR/HTMUSGS-7239.080.000.10PoorClearNONE
1302008-07-09 13:35ESTYesBTR/HTMUSGS-2628.900.000.10PoorClearNONE
1292008-07-09 13:30ESTYesBTR/HTMUSGS-6008.800.000.10PoorClearNONE
1282008-04-09 18:15ESTYesBTR/BLBUSGS20508.46 PoorClearNONE
1272008-04-09 18:10ESTYesBTR/BLBUSGS4398.54 PoorClearNONE
1262008-04-09 18:05ESTYesBTR/BLBUSGS-6058.52 PoorClearNONE
1252008-04-09 18:00ESTYesBTR/BLBUSGS-13708.38 PoorClearNONE
1242008-04-09 17:55ESTYesBTR/BLBUSGS-16208.12 PoorClearNONE
1232008-04-09 17:50ESTYesBTR/BLBUSGS-22307.95 PoorClearNONE
1222007-12-20 12:50ESTYesrgk/htmUSGS8747.060.000.10PoorClearNONE
1212007-12-20 12:40ESTYesrgk/htmUSGS15707.190.000.10PoorClearNONE
1202007-11-06 14:45ESTYesBTR/BLBUSGS28.57.570.000.10PoorClearNONE
1192007-11-06 14:40ESTYesBTR/BLBUSGS9277.600.000.10PoorClearNONE
1182007-11-06 14:35ESTYesBTR/BLBUSGS10407.630.000.10PoorClearNONE
1172007-11-06 14:30ESTYesBTR/BLBUSGS9267.770.000.10PoorClearNONE
1162007-11-06 14:25ESTYesBTR/BLBUSGS2937.550.000.10PoorClearNONE
1152007-11-06 14:20ESTYesBTR/BLBUSGS-2037.600.000.10PoorClearNONE
1142007-08-29 10:55ESTYesrgk/mshUSGS-8758.430.000.10PoorClearNONE
1132007-08-29 10:50ESTYesrgk/mshUSGS-15908.260.000.10PoorClearNONE
1122007-08-29 10:45ESTYesrgk/mshUSGS-12608.010.000.10PoorClearNONE
1112007-08-29 10:40ESTYesrgk/mshUSGS-6797.990.000.10PoorClearNONE
1102007-08-29 10:35ESTYesrgk/mshUSGS9767.910.000.10PoorClearNONE
1092007-08-29 10:30ESTYesrgk/mshUSGS21407.950.000.10PoorClearNONE
1082007-06-27 14:50ESTYesrgk/htnUSGS-11908.420.000.10PoorClearNONE
1072007-06-27 14:45ESTYesrgk/htnUSGS-7358.320.000.10PoorClearNONE
1062007-06-27 14:40ESTYesrgk/htnUSGS-2968.220.000.10PoorClearNONE
1052007-06-27 14:35ESTYesrgk/htnUSGS3228.450.000.10PoorClearNONE
1042007-06-27 14:30ESTYesrgk/htnUSGS4708.190.000.10PoorClearNONE
1032007-06-27 14:25ESTYesrgk/htnUSGS9888.530.000.10PoorClearNONE
1022007-04-19 09:15ESTYesrgk/mshUSGS10808.430.00 PoorClearNONE
1012007-04-19 09:10ESTYesrgk/mshUSGS9628.390.00 PoorClearNONE
1002007-04-19 09:05ESTYesrgk/mshUSGS11508.470.000.10PoorClearNONE
992007-04-19 09:00ESTYesrgk/mshUSGS15308.570.000.10PoorClearNONE
982007-04-19 08:55ESTYesrgk/mshUSGS7408.660.000.10PoorClearNONE
972007-04-19 08:50ESTYesrgk/mshUSGS2438.600.000.10PoorClearNONE
962007-04-19 08:45ESTYesrgk/mshUSGS-6058.540.00 PoorClearNONE
952006-10-11 09:35ESTYesrgk/mshUSGS28507.880.000.10FairClearNONE
942006-10-11 09:30ESTYesrgk/mshUSGS20808.080.000.10FairClearNONE
932006-10-11 09:25ESTYesrgk/mshUSGS4798.080.000.10FairClearNONE
922006-10-11 09:20ESTYesrgk/mshUSGS-56.78.160.000.10FairClearNONE
912006-10-11 09:15ESTYesrgk/mshUSGS4648.340.000.10FairClearNONE
902006-10-11 09:10ESTYesrgk/mshUSGS1878.340.000.10FairClearNONE
892006-08-09 10:50ESTYesrgk/mshUSGS1178.980.000.10FairDebrisLightNONE
882006-08-09 10:45ESTYesrgk/mshUSGS6708.890.000.10FairDebrisLightNONE
872006-08-09 10:40ESTYesrgk/mshUSGS-7218.730.000.10FairDebrisLightNONE
862006-08-09 10:35ESTYesrgk/mshUSGS-17008.650.000.10FairDebrisLightNONE
852006-08-09 10:30ESTYesrgk/mshUSGS-14908.530.000.10FairDebrisLightNONE
822006-06-22 09:24ESTYesrgk/bslUSGS3278.350.000.10FairClearNONE
842006-06-22 08:34ESTYesrgk/bslUSGS-11508.550.000.10FairClearNONE
832006-06-22 08:30ESTYesrgk/bslUSGS-17008.540.000.10FairClearNONE
812006-06-22 08:19ESTYesrgk/bslUSGS16508.290.000.10FairClearNONE
802006-06-22 08:14ESTYesrgk/bslUSGS14908.460.000.10FairClearNONE
792006-06-22 08:04ESTYesrgk/bslUSGS23208.670.000.10FairClearNONE
782006-06-22 08:04ESTYesrgk/bslUSGS28908.780.000.10FairClearNONE
772006-04-12 12:50ESTYesrgk/mshUSGS-5488.77 Poor NONE
762006-04-12 12:45ESTYesrgk/mshUSGS-15508.72 Poor NONE
752006-04-12 12:40ESTYesrgk/mshUSGS-12808.76 Poor NONE
742006-04-12 12:35ESTYesrgk/mshUSGS4318.58 Poor NONE
732006-04-12 12:30ESTYesrgk/mshUSGS4518.35 Poor NONE
722006-04-12 12:25ESTYesrgk/mshUSGS-6178.38 Poor NONE
712006-02-08 14:09ESTYesrgk/mshUSGS9628.58 PoorClearNONE
702006-02-08 14:04ESTYesrgk/mshUSGS7068.64 PoorClearNONE
692006-02-08 14:00ESTYesrgk/mshUSGS7558.670.00 PoorClearNONE
682006-02-08 13:54ESTYesrgk/mshUSGS5068.62 PoorClearNONE
672005-12-07 12:20ESTYesrgk/semUSGS6037.84 Poor NONE
662005-12-07 12:05ESTYesrgk/mshUSGS1357.75 Poor NONE
652005-12-07 12:00ESTYesrgk/mshUSGS12.17.72 Poor NONE
642005-12-07 11:55ESTYesrgk/mshUSGS2747.76 Poor NONE
632005-10-27 10:25ESTYesrgk/blbUSGS3818.30 Poor NONE
622005-10-27 10:20ESTYesrgk/blbUSGS8398.23 Poor NONE
612005-10-27 10:15ESTYesrgk/blbUSGS9308.24 Poor NONE
602005-10-27 10:10ESTYesrgk/blbUSGS-6.748.27 Poor NONE
592005-10-27 10:05ESTYesrgk/blbUSGS5298.29 Poor NONE
582005-10-27 10:00ESTYesrgk/blbUSGS8898.31 Poor NONE
572005-08-31 12:50ESTYesrgk/mshUSGS3159.12 Poor NONE
562005-08-31 11:20ESTYesrgk/mshUSGS2959.14 Poor NONE
552005-05-04 11:00ESTYesbtr/mshUSGS8059.07 Good NONE
542005-05-04 10:30ESTYesbtr/mshUSGS3478.92 Good NONE
532005-03-08 12:32ESTYesprb/mshUSGS12908.87 PoorClearNONE
522004-11-30 10:21ESTYescdm/mshUSGS3378.400.07 FairClearNONE
512004-10-20 09:35ESTYesrgk/mshUSGS3979.25 Poor NONE
502004-10-20 09:30ESTYesrgk/mshUSGS5659.24 Poor NONE
492004-10-20 09:25ESTYesrgk/mshUSGS6249.22 Poor NONE
482004-10-20 09:20ESTYesrgk/mshUSGS81.39.19 Poor NONE
472004-10-20 09:15ESTYesrgk/mshUSGS-3189.13 Poor NONE
462004-10-20 09:10ESTYesrgk/mshUSGS-5769.05 Poor NONE
452004-10-20 09:05ESTYesrgk/mshUSGS2869.05 Poor NONE
442004-10-20 09:00ESTYesrgk/mshUSGS14608.99 Poor NONE
432004-10-20 08:55ESTYesrgk/mshUSGS21309.06 Poor NONE
422004-04-15 14:29ESTYesrgk/blbUSGS5288.20 Poor NONE
412003-10-30 09:15ESTYesrgk/lmjUSGS12207.57 Poor NONE
402003-10-30 08:45ESTYesrgk/lmjUSGS16307.70 Poor NONE
392003-06-05 09:15ESTYesrgk/lmjUSGS2858.15 Poor NONE
382003-06-05 09:00ESTYesrgk/lmjUSGS9668.23 Poor NONE
372002-10-02 15:30ESTYescdm/blbUSGS22109.16 Fair NONE
362002-05-06 14:42ESTYesbtr/blbUSGS4078.920.300.90Poor NONE
352001-08-28 11:30ESTYesprb/htnUSGS-6518.73 Poor NONE
342001-08-28 11:27ESTYesprb/htnUSGS3188.63 Poor NONE
332001-08-28 11:24ESTYesprb/htnUSGS4758.66 Poor NONE
322001-08-28 11:21ESTYesprb/htnUSGS5668.64 Poor NONE
312001-08-28 11:18ESTYesprb/htnUSGS10308.60 Poor NONE
302001-08-28 11:15ESTYesprb/htnUSGS8318.57 Poor NONE
292001-08-28 11:12ESTYesprb/htnUSGS7138.65 Poor NONE
282001-08-28 11:09ESTYesprb/htnUSGS5278.65 Poor NONE
272001-08-28 11:03ESTYesprb/htnUSGS6658.64 Poor NONE
262001-08-28 11:00ESTYesprb/htnUSGS2848.69 Poor NONE
252001-08-28 10:57ESTYesprb/htnUSGS4488.65 Poor NONE
242001-08-28 10:54ESTYesprb/htnUSGS5018.65 Poor NONE
232001-08-28 10:51ESTYesprb/htnUSGS2988.59 Poor NONE
222001-08-28 10:48ESTYesprb/htnUSGS2158.63 Poor NONE
212001-08-28 10:45ESTYesprb/htnUSGS2498.58 Poor NONE
202001-08-28 10:42ESTYesprb/htnUSGS7968.59 Poor NONE
192001-08-28 10:39ESTYesprb/htnUSGS9368.55 Poor NONE
182001-08-28 10:36ESTYesprb/htnUSGS12108.59 Poor NONE
172001-08-28 10:33ESTYesprb/htnUSGS15608.68 Poor NONE
162001-08-28 10:27ESTYesprb/htnUSGS10308.68 Poor NONE
152000-09-22 14:48ESTYesbtr/blbUSGS-22008.38 Poor NONE
142000-09-22 14:45ESTYesbtr/blbUSGS-1438.27 Poor NONE
132000-09-22 14:42ESTYesbtr/blbUSGS11808.40 Poor NONE
122000-09-22 14:39ESTYesbtr/blbUSGS34008.06 Poor NONE
112000-09-22 14:36ESTYesbtr/blbUSGS25808.11 Poor NONE
102000-09-22 14:33ESTYesbtr/blbUSGS16508.09 Poor NONE
92000-09-22 14:30ESTYesbtr/blbUSGS-24508.08 Poor NONE
82000-09-22 14:27ESTYesbtr/blbUSGS-36908.20 Poor NONE
72000-09-22 14:24ESTYesbrt/blbUSGS-10108.22 Poor NONE
62000-09-22 14:21ESTYesbtr/blbUSGS16308.18 Poor NONE
52000-09-22 14:18ESTYesbtr/blbUSGS30308.16 Poor NONE
42000-09-22 14:15ESTYesbtr/blbUSGS54207.86 Poor NONE
32000-09-22 14:12ESTYesbtr/blbUSGS53207.98 Poor NONE
22000-09-22 14:09ESTYesbtr/blbUSGS32708.44 Poor NONE
12000-09-22 14:06ESTYesbtr/blbUSGS11908.73 Poor NONE